createdAt,value
2024-04-25T00:01:30.537Z,8.93
2024-04-25T00:04:16.015Z,7.60
2024-04-25T00:07:01.515Z,6.43
2024-04-25T00:09:47.181Z,8.65
2024-04-25T00:12:32.753Z,9.00
2024-04-25T00:15:18.401Z,5.53
2024-04-25T00:18:04.680Z,5.90
2024-04-25T00:20:50.790Z,5.65
2024-04-25T00:23:36.596Z,5.57
2024-04-25T00:26:22.516Z,5.95
2024-04-25T00:29:08.216Z,7.32
2024-04-25T00:31:53.639Z,7.43
2024-04-25T00:34:39.486Z,7.50
2024-04-25T00:37:26.171Z,6.05
2024-04-25T00:40:12.329Z,7.15
2024-04-25T00:42:59.950Z,7.72
2024-04-25T00:45:46.225Z,8.10
2024-04-25T00:48:33.069Z,6.30
2024-04-25T00:51:20.517Z,6.13
2024-04-25T00:54:06.146Z,6.38
2024-04-25T00:56:52.082Z,5.57
2024-04-25T00:59:42.885Z,8.10
2024-04-25T01:02:31.169Z,6.70
2024-04-25T01:05:17.126Z,7.65
2024-04-25T01:08:03.128Z,6.00
2024-04-25T01:10:51.403Z,6.10
2024-04-25T01:13:37.054Z,8.10
2024-04-25T01:16:22.535Z,8.13
2024-04-25T01:19:07.825Z,7.75
2024-04-25T01:21:53.567Z,7.68
2024-04-25T01:24:39.241Z,10.43
2024-04-25T01:27:25.620Z,8.93
2024-04-25T01:30:12.157Z,6.13
2024-04-25T01:32:58.021Z,5.55
2024-04-25T01:35:46.401Z,6.85
2024-04-25T01:38:31.881Z,8.77
2024-04-25T01:41:17.624Z,7.90
2024-04-25T01:44:03.458Z,7.93
2024-04-25T01:46:54.479Z,7.82
2024-04-25T01:49:40.631Z,7.13
2024-04-25T01:52:25.961Z,5.30
2024-04-25T01:55:11.738Z,8.10
2024-04-25T01:57:57.463Z,5.30
2024-04-25T02:00:43.165Z,7.15
2024-04-25T02:03:28.808Z,9.43
2024-04-25T02:06:14.252Z,8.73
2024-04-25T02:09:00.056Z,6.93
2024-04-25T02:11:45.670Z,10.13
2024-04-25T02:14:31.805Z,7.38
2024-04-25T02:17:17.623Z,8.45
2024-04-25T02:20:23.011Z,6.43
2024-04-25T02:23:27.307Z,7.47
2024-04-25T02:26:12.870Z,6.68
2024-04-25T02:28:58.339Z,6.13
2024-04-25T02:31:44.028Z,9.20
2024-04-25T02:34:29.681Z,7.07
2024-04-25T02:37:15.208Z,7.97
2024-04-25T02:40:00.874Z,9.45
2024-04-25T02:42:46.515Z,7.05
2024-04-25T02:45:31.968Z,9.55
2024-04-25T02:48:17.706Z,7.50
2024-04-25T02:51:03.108Z,6.97
2024-04-25T02:53:48.555Z,8.45
2024-04-25T02:56:34.672Z,6.95
2024-04-25T02:59:21.229Z,7.78
2024-04-25T03:02:07.786Z,10.25
2024-04-25T03:04:53.558Z,8.63
2024-04-25T03:07:39.082Z,8.13
2024-04-25T03:10:24.923Z,8.50
2024-04-25T03:13:10.834Z,8.00
2024-04-25T03:15:56.496Z,10.40
2024-04-25T03:18:42.370Z,7.88
2024-04-25T03:21:27.992Z,9.60
2024-04-25T03:24:13.730Z,7.78
2024-04-25T03:26:59.135Z,8.70
2024-04-25T03:29:44.890Z,9.35
2024-04-25T03:32:30.819Z,10.02
2024-04-25T03:35:16.298Z,9.07
2024-04-25T03:38:04.306Z,9.05
2024-04-25T03:40:51.056Z,9.38
2024-04-25T03:43:36.424Z,8.43
2024-04-25T03:46:22.266Z,8.68
2024-04-25T03:49:09.558Z,10.27
2024-04-25T03:51:55.539Z,8.85
2024-04-25T03:54:41.163Z,8.68
2024-04-25T03:57:27.188Z,10.90
2024-04-25T04:00:13.129Z,10.60
2024-04-25T04:02:58.715Z,11.70
2024-04-25T04:05:44.301Z,8.70
2024-04-25T04:08:30.710Z,9.77
2024-04-25T04:11:16.232Z,9.18
2024-04-25T04:14:01.908Z,10.35
2024-04-25T04:16:47.922Z,8.82
2024-04-25T04:19:33.679Z,8.88
2024-04-25T04:22:19.592Z,9.90
2024-04-25T04:25:08.609Z,8.40
2024-04-25T04:27:54.138Z,10.13
2024-04-25T04:30:40.012Z,8.43
2024-04-25T04:33:26.271Z,8.35
2024-04-25T04:36:11.957Z,7.70
2024-04-25T04:38:59.105Z,11.25
2024-04-25T04:41:45.062Z,11.05
2024-04-25T04:44:30.694Z,8.68
2024-04-25T04:47:16.575Z,9.13
2024-04-25T04:50:02.072Z,8.07
2024-04-25T04:52:48.018Z,10.27
2024-04-25T04:55:33.783Z,8.73
2024-04-25T04:58:19.573Z,9.52
2024-04-25T05:01:06.068Z,9.30
2024-04-25T05:03:51.471Z,10.27
2024-04-25T05:06:37.125Z,13.57
2024-04-25T05:09:22.908Z,9.65
2024-04-25T05:12:08.796Z,10.95
2024-04-25T05:14:54.492Z,11.50
2024-04-25T05:17:41.530Z,9.80
2024-04-25T05:20:27.536Z,9.32
2024-04-25T05:23:13.451Z,9.75
2024-04-25T05:25:58.809Z,9.40
2024-04-25T05:28:44.327Z,10.32
2024-04-25T05:31:29.924Z,11.30
2024-04-25T05:34:15.395Z,9.70
2024-04-25T05:37:01.163Z,9.25
2024-04-25T05:39:46.799Z,9.52
2024-04-25T05:42:32.493Z,9.05
2024-04-25T05:45:18.091Z,10.05
2024-04-25T05:48:03.978Z,9.02
2024-04-25T05:50:49.846Z,8.40
2024-04-25T05:53:35.535Z,8.60
2024-04-25T05:56:21.108Z,7.60
2024-04-25T05:59:06.747Z,7.70
2024-04-25T06:01:52.058Z,8.88
2024-04-25T06:04:38.198Z,7.60
2024-04-25T06:07:23.507Z,7.90
2024-04-25T06:10:09.148Z,8.55
2024-04-25T06:12:54.894Z,7.05
2024-04-25T06:15:40.757Z,8.27
2024-04-25T06:18:26.836Z,8.50
2024-04-25T06:21:12.415Z,7.82
2024-04-25T06:24:00.644Z,9.38
2024-04-25T06:26:46.472Z,7.68
2024-04-25T06:29:31.994Z,8.55
2024-04-25T06:32:17.812Z,9.90
2024-04-25T06:35:03.495Z,7.60
2024-04-25T06:37:48.973Z,8.27
2024-04-25T06:40:34.436Z,9.18
2024-04-25T06:43:20.080Z,7.78
2024-04-25T06:46:06.190Z,7.68
2024-04-25T06:48:54.195Z,8.40
2024-04-25T06:51:40.388Z,6.45
2024-04-25T06:54:27.925Z,8.48
2024-04-25T06:57:15.019Z,6.65
2024-04-25T07:00:00.910Z,6.22
2024-04-25T07:02:46.573Z,6.45
2024-04-25T07:05:32.380Z,6.25
2024-04-25T07:08:18.478Z,7.10
2024-04-25T07:11:04.479Z,5.85
2024-04-25T07:13:50.216Z,5.20
2024-04-25T07:16:35.587Z,6.65
2024-04-25T07:19:21.346Z,5.47
2024-04-25T07:22:07.308Z,5.65
2024-04-25T07:24:52.963Z,7.13
2024-04-25T07:27:39.583Z,6.57
2024-04-25T07:30:25.148Z,5.68
2024-04-25T07:33:11.357Z,5.20
2024-04-25T07:35:57.122Z,6.28
2024-04-25T07:38:42.874Z,7.97
2024-04-25T07:41:29.908Z,8.65
2024-04-25T07:44:15.362Z,6.50
2024-04-25T07:47:01.124Z,7.10
2024-04-25T07:49:47.023Z,8.20
2024-04-25T07:52:32.402Z,9.00
2024-04-25T07:55:18.152Z,8.35
2024-04-25T07:58:03.846Z,8.52
2024-04-25T08:00:50.538Z,6.85
2024-04-25T08:03:36.333Z,7.00
2024-04-25T08:06:21.918Z,7.00
2024-04-25T08:09:07.772Z,6.93
2024-04-25T08:11:53.609Z,6.85
2024-04-25T08:14:41.627Z,5.63
2024-04-25T08:17:28.803Z,6.25
2024-04-25T08:20:14.867Z,6.45
2024-04-25T08:23:01.906Z,5.57
2024-04-25T08:25:47.613Z,7.97
2024-04-25T08:28:33.731Z,5.55
2024-04-25T08:31:19.474Z,3.72
2024-04-25T08:34:05.763Z,4.78
2024-04-25T08:36:51.383Z,4.25
2024-04-25T08:39:37.225Z,3.50
2024-04-25T08:42:23.295Z,3.65
2024-04-25T08:45:10.937Z,3.50
2024-04-25T08:47:58.320Z,3.45
2024-04-25T08:50:45.611Z,5.30
2024-04-25T08:53:32.452Z,4.32
2024-04-25T08:56:18.865Z,5.95
2024-04-25T08:59:04.702Z,5.75
2024-04-25T09:01:51.913Z,3.55
2024-04-25T09:04:39.674Z,3.30
2024-04-25T09:07:26.978Z,3.22
2024-04-25T09:10:13.569Z,5.70
2024-04-25T09:12:59.455Z,4.88
2024-04-25T09:15:45.632Z,4.20
2024-04-25T09:18:32.511Z,3.15
2024-04-25T09:21:18.166Z,3.08
2024-04-25T09:24:04.009Z,3.42
2024-04-25T09:26:50.798Z,5.80
2024-04-25T09:29:36.432Z,4.07
2024-04-25T09:32:22.741Z,5.90
2024-04-25T09:35:11.352Z,4.28
2024-04-25T09:37:57.939Z,3.22
2024-04-25T09:40:50.212Z,5.18
2024-04-25T09:43:36.527Z,2.30
2024-04-25T09:46:29.460Z,3.85
2024-04-25T09:49:17.947Z,3.10
2024-04-25T09:52:09.612Z,4.20
2024-04-25T09:55:03.084Z,3.65
2024-04-25T09:57:54.639Z,5.07
2024-04-25T10:00:41.912Z,3.00
2024-04-25T10:03:27.979Z,6.00
2024-04-25T10:06:14.639Z,4.45
2024-04-25T10:09:00.676Z,4.47
2024-04-25T10:11:50.124Z,3.75
2024-04-25T10:14:36.015Z,2.97
2024-04-25T10:17:25.563Z,4.78
2024-04-25T10:20:21.069Z,3.90
2024-04-25T10:23:08.377Z,3.17
2024-04-25T10:25:56.546Z,4.95
2024-04-25T10:28:41.968Z,3.78
2024-04-25T10:31:37.928Z,3.58
2024-04-25T10:34:23.308Z,5.53
2024-04-25T10:37:09.549Z,6.85
2024-04-25T10:40:00.152Z,2.83
2024-04-25T10:43:03.778Z,6.20
2024-04-25T10:45:51.153Z,4.03
2024-04-25T10:48:36.904Z,2.13
2024-04-25T10:51:22.980Z,5.85
2024-04-25T10:54:09.193Z,6.05
2024-04-25T10:56:54.869Z,5.18
2024-04-25T10:59:40.480Z,2.30
2024-04-25T11:02:34.835Z,5.13
2024-04-25T11:05:20.737Z,3.30
2024-04-25T11:08:07.380Z,3.22
2024-04-25T11:10:53.224Z,3.00
2024-04-25T11:13:39.585Z,3.80
2024-04-25T11:16:37.759Z,3.97
2024-04-25T11:19:27.110Z,2.83
2024-04-25T11:22:19.291Z,3.50
2024-04-25T11:25:16.998Z,2.97
2024-04-25T11:28:02.662Z,2.38
2024-04-25T11:30:48.484Z,3.55
2024-04-25T11:33:34.285Z,4.38
2024-04-25T11:36:29.392Z,2.85
2024-04-25T11:39:21.405Z,3.40
2024-04-25T11:42:08.240Z,3.33
2024-04-25T11:44:54.525Z,2.00
2024-04-25T11:47:42.768Z,3.97
2024-04-25T11:50:29.390Z,5.72
2024-04-25T11:53:15.169Z,3.67
2024-04-25T11:56:00.684Z,1.30
2024-04-25T11:58:45.941Z,3.78
2024-04-25T12:01:31.739Z,3.38
2024-04-25T12:04:17.533Z,3.47
2024-04-25T12:07:03.594Z,2.67
2024-04-25T12:09:49.051Z,3.30
2024-04-25T12:12:34.782Z,4.22
2024-04-25T12:15:21.815Z,3.13
2024-04-25T12:18:08.051Z,2.88
2024-04-25T12:20:53.672Z,3.17
2024-04-25T12:23:39.073Z,3.33
2024-04-25T12:26:24.644Z,3.83
2024-04-25T12:29:10.021Z,3.45
2024-04-25T12:31:55.875Z,2.25
2024-04-25T12:34:41.501Z,2.95
2024-04-25T12:37:26.939Z,3.40
2024-04-25T12:40:12.481Z,3.60
2024-04-25T12:42:59.416Z,5.63
2024-04-25T12:45:50.796Z,5.10
2024-04-25T12:48:36.969Z,2.88
2024-04-25T12:51:23.856Z,3.85
2024-04-25T12:54:09.512Z,2.33
2024-04-25T12:56:55.396Z,2.67
2024-04-25T12:59:41.203Z,3.90
2024-04-25T13:02:26.777Z,3.20
2024-04-25T13:05:12.366Z,2.50
2024-04-25T13:07:57.782Z,3.30
2024-04-25T13:10:45.672Z,4.28
2024-04-25T13:13:34.119Z,7.18
2024-04-25T13:16:20.285Z,2.08
2024-04-25T13:19:06.068Z,6.00
2024-04-25T13:21:51.983Z,3.60
2024-04-25T13:24:39.512Z,3.88
2024-04-25T13:27:25.334Z,4.15
2024-04-25T13:30:11.341Z,5.43
2024-04-25T13:32:56.959Z,4.30
2024-04-25T13:35:42.518Z,2.85
2024-04-25T13:38:28.503Z,8.27
2024-04-25T13:41:14.376Z,2.65
2024-04-25T13:44:00.064Z,7.53
2024-04-25T13:46:45.873Z,4.45
2024-04-25T13:49:31.820Z,7.35
2024-04-25T13:52:17.699Z,5.80
2024-04-25T13:55:03.915Z,3.20
2024-04-25T13:57:50.059Z,3.90
2024-04-25T14:00:35.714Z,4.50
2024-04-25T14:03:21.101Z,6.80
2024-04-25T14:06:07.530Z,3.10
2024-04-25T14:08:52.938Z,1.92
2024-04-25T14:11:40.966Z,2.65
2024-04-25T14:14:28.464Z,2.50
2024-04-25T14:17:14.528Z,2.58
2024-04-25T14:20:00.027Z,3.65
2024-04-25T14:22:45.895Z,2.58
2024-04-25T14:25:50.045Z,5.25
2024-04-25T14:28:44.712Z,5.63
2024-04-25T14:31:30.124Z,4.43
2024-04-25T14:34:15.906Z,5.55
2024-04-25T14:37:01.815Z,4.30
2024-04-25T14:39:47.252Z,2.90
2024-04-25T14:42:35.212Z,3.80
2024-04-25T14:45:21.700Z,3.53
2024-04-25T14:48:07.975Z,7.53
2024-04-25T14:50:56.257Z,3.45
2024-04-25T14:53:41.624Z,3.20
2024-04-25T14:56:27.443Z,3.03
2024-04-25T14:59:13.251Z,4.70
2024-04-25T15:01:58.943Z,3.00
2024-04-25T15:04:44.597Z,4.75
2024-04-25T15:07:30.355Z,2.50
2024-04-25T15:10:18.491Z,2.17
2024-04-25T15:13:05.000Z,3.22
2024-04-25T15:15:51.870Z,4.15
2024-04-25T15:18:40.260Z,4.15
2024-04-25T15:21:26.052Z,3.25
2024-04-25T15:24:11.586Z,3.65
2024-04-25T15:26:57.253Z,3.00
2024-04-25T15:29:45.703Z,5.00
2024-04-25T15:32:31.368Z,3.88
2024-04-25T15:35:17.008Z,3.08
2024-04-25T15:38:02.475Z,3.47
2024-04-25T15:40:48.103Z,4.82
2024-04-25T15:43:33.852Z,4.03
2024-04-25T15:46:19.637Z,5.20
2024-04-25T15:49:05.451Z,4.50
2024-04-25T15:51:51.074Z,4.85
2024-04-25T15:54:37.022Z,3.70
2024-04-25T15:57:22.360Z,4.03
2024-04-25T16:00:08.644Z,2.80
2024-04-25T16:02:54.620Z,3.10
2024-04-25T16:05:40.043Z,4.50
2024-04-25T16:08:27.901Z,3.55
2024-04-25T16:11:13.947Z,4.03
2024-04-25T16:13:59.676Z,6.25
2024-04-25T16:16:45.029Z,3.13
2024-04-25T16:19:31.621Z,5.95
2024-04-25T16:22:17.413Z,3.33
2024-04-25T16:25:05.134Z,3.70
2024-04-25T16:27:50.974Z,3.95
2024-04-25T16:30:36.735Z,5.75
2024-04-25T16:33:22.643Z,4.60
2024-04-25T16:36:15.726Z,5.13
2024-04-25T16:39:01.563Z,3.67
2024-04-25T16:41:47.692Z,5.05
2024-04-25T16:44:33.115Z,5.13
2024-04-25T16:47:18.854Z,6.57
2024-04-25T16:50:04.427Z,6.20
2024-04-25T16:52:50.275Z,11.55
2024-04-25T16:55:36.161Z,5.93
2024-04-25T16:58:21.651Z,4.40
2024-04-25T17:01:07.368Z,4.60
2024-04-25T17:03:53.019Z,3.22
2024-04-25T17:06:38.851Z,4.57
2024-04-25T17:09:28.232Z,4.30
2024-04-25T17:12:15.185Z,5.22
2024-04-25T17:15:00.673Z,3.22
2024-04-25T17:17:48.875Z,3.38
2024-04-25T17:20:34.648Z,3.70
2024-04-25T17:23:22.158Z,3.70
2024-04-25T17:26:09.643Z,12.40
2024-04-25T17:28:57.487Z,2.10
2024-04-25T17:31:47.130Z,3.10
2024-04-25T17:34:32.823Z,5.60
2024-04-25T17:37:18.465Z,3.20
2024-04-25T17:40:03.997Z,2.10
2024-04-25T17:42:49.558Z,2.47
2024-04-25T17:45:35.459Z,3.55
2024-04-25T17:48:21.367Z,3.40
2024-04-25T17:51:07.000Z,2.47
2024-04-25T17:53:53.568Z,3.40
2024-04-25T17:56:40.651Z,2.33
2024-04-25T17:59:26.277Z,3.08
2024-04-25T18:02:11.958Z,4.60
2024-04-25T18:04:59.374Z,3.58
2024-04-25T18:07:45.024Z,2.70
2024-04-25T18:10:30.949Z,4.32
2024-04-25T18:13:16.758Z,4.78
2024-04-25T18:16:02.323Z,3.30
2024-04-25T18:18:51.360Z,3.47
2024-04-25T18:21:36.847Z,3.20
2024-04-25T18:24:23.272Z,3.03
2024-04-25T18:27:12.139Z,4.43
2024-04-25T18:29:57.621Z,4.28
2024-04-25T18:32:45.773Z,5.30
2024-04-25T18:35:31.407Z,2.55
2024-04-25T18:38:17.086Z,5.18
2024-04-25T18:41:03.106Z,3.25
2024-04-25T18:43:48.897Z,5.05
2024-04-25T18:46:35.055Z,5.03
2024-04-25T18:49:23.155Z,3.63
2024-04-25T18:52:08.774Z,2.65
2024-04-25T18:54:54.478Z,5.90
2024-04-25T18:57:40.000Z,4.10
2024-04-25T19:00:25.473Z,4.75
2024-04-25T19:03:11.404Z,2.60
2024-04-25T19:05:57.063Z,5.78
2024-04-25T19:08:42.813Z,3.92
2024-04-25T19:11:28.769Z,6.85
2024-04-25T19:14:15.353Z,3.78
2024-04-25T19:17:00.795Z,5.63
2024-04-25T19:19:49.675Z,5.70
2024-04-25T19:22:35.973Z,3.67
2024-04-25T19:25:21.633Z,3.63
2024-04-25T19:28:07.389Z,2.75
2024-04-25T19:30:53.060Z,4.50
2024-04-25T19:33:38.996Z,3.53
2024-04-25T19:36:24.432Z,4.30
2024-04-25T19:39:10.522Z,5.25
2024-04-25T19:41:58.288Z,4.28
2024-04-25T19:44:43.745Z,3.75
2024-04-25T19:47:30.891Z,3.05
2024-04-25T19:50:18.058Z,2.40
2024-04-25T19:53:05.718Z,3.28
2024-04-25T19:55:52.619Z,2.85
2024-04-25T19:58:38.568Z,4.38
2024-04-25T20:01:24.217Z,2.90
2024-04-25T20:04:09.938Z,3.60
2024-04-25T20:06:55.664Z,5.03
2024-04-25T20:09:42.366Z,6.55
2024-04-25T20:12:28.058Z,6.22
2024-04-25T20:15:13.774Z,4.82
2024-04-25T20:18:18.196Z,11.63
2024-04-25T20:21:03.990Z,6.32
2024-04-25T20:23:49.439Z,9.02
2024-04-25T20:26:34.993Z,4.68
2024-04-25T20:29:20.662Z,5.63
2024-04-25T20:32:06.278Z,4.80
2024-04-25T20:34:52.092Z,10.30
2024-04-25T20:37:37.451Z,4.78
2024-04-25T20:40:23.576Z,5.60
2024-04-25T20:43:08.989Z,4.22
2024-04-25T20:45:54.568Z,8.63
2024-04-25T20:48:42.171Z,6.35
2024-04-25T20:51:31.009Z,30.17
2024-04-25T20:54:16.918Z,10.70
2024-04-25T20:57:02.561Z,4.22
2024-04-25T20:59:48.177Z,10.18
2024-04-25T21:02:34.583Z,3.28
2024-04-25T21:05:20.301Z,5.70
2024-04-25T21:08:07.109Z,4.43
2024-04-25T21:10:52.706Z,2.83
2024-04-25T21:13:38.221Z,4.45
2024-04-25T21:16:30.628Z,3.78
2024-04-25T21:19:16.115Z,3.28
2024-04-25T21:22:01.760Z,3.95
2024-04-25T21:24:47.230Z,3.47
2024-04-25T21:27:32.881Z,3.88
2024-04-25T21:30:18.749Z,4.25
2024-04-25T21:33:04.590Z,4.47
2024-04-25T21:35:50.386Z,4.75
2024-04-25T21:38:40.107Z,3.30
2024-04-25T21:41:25.914Z,4.63
2024-04-25T21:44:12.356Z,4.55
2024-04-25T21:46:57.927Z,4.18
2024-04-25T21:49:46.191Z,3.60
2024-04-25T21:52:31.605Z,3.13
2024-04-25T21:55:17.322Z,4.03
2024-04-25T21:58:04.245Z,4.90
2024-04-25T22:00:50.501Z,4.97
2024-04-25T22:03:36.168Z,2.60
2024-04-25T22:06:22.554Z,4.68
2024-04-25T22:09:08.472Z,3.38
2024-04-25T22:11:54.079Z,4.50
2024-04-25T22:14:40.574Z,3.95
2024-04-25T22:17:25.928Z,4.63
2024-04-25T22:20:11.649Z,4.10
2024-04-25T22:22:57.283Z,3.00
2024-04-25T22:25:42.545Z,3.75
2024-04-25T22:28:28.350Z,3.00
2024-04-25T22:31:13.939Z,3.40
2024-04-25T22:33:59.741Z,3.95
2024-04-25T22:36:45.380Z,3.42
2024-04-25T22:39:30.695Z,6.05
2024-04-25T22:42:16.374Z,4.32
2024-04-25T22:45:03.964Z,4.80
2024-04-25T22:47:50.839Z,5.50
2024-04-25T22:50:36.444Z,4.45
2024-04-25T22:53:22.045Z,4.70
2024-04-25T22:56:07.989Z,2.60
2024-04-25T22:58:53.718Z,4.63
2024-04-25T23:01:40.221Z,3.60
2024-04-25T23:04:25.862Z,6.35
2024-04-25T23:07:11.779Z,4.50
2024-04-25T23:09:57.317Z,2.85
2024-04-25T23:12:42.851Z,2.85
2024-04-25T23:15:28.524Z,2.50
2024-04-25T23:18:14.308Z,3.15
2024-04-25T23:20:59.955Z,3.00
2024-04-25T23:23:45.502Z,2.67
2024-04-25T23:26:35.666Z,2.78
2024-04-25T23:29:21.421Z,3.05
2024-04-25T23:32:06.847Z,2.85
2024-04-25T23:34:52.556Z,2.88
2024-04-25T23:37:38.337Z,3.47
2024-04-25T23:40:23.951Z,3.22
2024-04-25T23:43:09.461Z,5.82
2024-04-25T23:45:55.212Z,2.58
2024-04-25T23:48:41.183Z,2.67
2024-04-25T23:51:26.870Z,2.95
2024-04-25T23:54:12.423Z,3.22
2024-04-25T23:56:58.231Z,2.47
2024-04-25T23:59:43.949Z,3.53
